sensor_id;sensor_type;location;lat;lon;timestamp;pressure;altitude;pressure_sealevel;temperature;humidity
51359;BME280;37448;51.588;7.248;2022-10-19T00:02:11;102147.41;;;7.81;100.00
51359;BME280;37448;51.588;7.248;2022-10-19T00:04:42;102142.38;;;7.75;100.00
51359;BME280;37448;51.588;7.248;2022-10-19T00:07:12;102149.47;;;7.76;100.00
51359;BME280;37448;51.588;7.248;2022-10-19T00:09:43;102143.59;;;7.69;100.00
51359;BME280;37448;51.588;7.248;2022-10-19T00:12:14;102138.75;;;7.66;100.00
51359;BME280;37448;51.588;7.248;2022-10-19T00:14:44;102144.53;;;7.64;100.00
51359;BME280;37448;51.588;7.248;2022-10-19T00:17:14;102145.44;;;7.60;100.00
51359;BME280;37448;51.588;7.248;2022-10-19T00:19:45;102150.13;;;7.59;100.00
51359;BME280;37448;51.588;7.248;2022-10-19T00:22:15;102143.66;;;7.55;100.00
51359;BME280;37448;51.588;7.248;2022-10-19T00:24:45;102140.72;;;7.52;100.00
51359;BME280;37448;51.588;7.248;2022-10-19T00:27:16;102144.78;;;7.54;100.00
51359;BME280;37448;51.588;7.248;2022-10-19T00:29:46;102144.06;;;7.49;100.00
51359;BME280;37448;51.588;7.248;2022-10-19T00:32:17;102142.88;;;7.41;100.00
51359;BME280;37448;51.588;7.248;2022-10-19T00:34:47;102150.75;;;7.43;100.00
51359;BME280;37448;51.588;7.248;2022-10-19T00:37:17;102142.53;;;7.43;100.00
51359;BME280;37448;51.588;7.248;2022-10-19T00:39:48;102134.16;;;7.39;100.00
51359;BME280;37448;51.588;7.248;2022-10-19T00:42:18;102138.03;;;7.38;100.00
51359;BME280;37448;51.588;7.248;2022-10-19T00:47:22;102142.97;;;7.36;100.00
51359;BME280;37448;51.588;7.248;2022-10-19T00:49:53;102146.34;;;7.33;100.00
51359;BME280;37448;51.588;7.248;2022-10-19T00:52:24;102151.28;;;7.31;100.00
51359;BME280;37448;51.588;7.248;2022-10-19T00:54:56;102144.31;;;7.25;100.00
51359;BME280;37448;51.588;7.248;2022-10-19T00:57:28;102143.50;;;7.24;100.00
51359;BME280;37448;51.588;7.248;2022-10-19T01:00:00;102151.81;;;7.19;100.00
51359;BME280;37448;51.588;7.248;2022-10-19T01:02:32;102151.28;;;7.17;100.00
51359;BME280;37448;51.588;7.248;2022-10-19T01:05:03;102141.50;;;7.16;100.00
51359;BME280;37448;51.588;7.248;2022-10-19T01:07:33;102137.63;;;7.17;100.00
51359;BME280;37448;51.588;7.248;2022-10-19T01:10:04;102137.84;;;7.21;100.00
51359;BME280;37448;51.588;7.248;2022-10-19T01:13:08;102136.03;;;7.16;100.00
51359;BME280;37448;51.588;7.248;2022-10-19T01:15:54;102132.59;;;7.11;100.00
51359;BME280;37448;51.588;7.248;2022-10-19T01:18:39;102133.09;;;7.13;100.00
51359;BME280;37448;51.588;7.248;2022-10-19T01:21:24;102125.09;;;7.03;100.00
51359;BME280;37448;51.588;7.248;2022-10-19T01:30:15;102118.31;;;6.86;100.00
51359;BME280;37448;51.588;7.248;2022-10-19T01:33:05;102114.25;;;6.84;100.00
51359;BME280;37448;51.588;7.248;2022-10-19T01:35:45;102118.91;;;6.83;100.00
51359;BME280;37448;51.588;7.248;2022-10-19T01:38:33;102114.34;;;6.79;100.00
51359;BME280;37448;51.588;7.248;2022-10-19T01:41:13;102122.25;;;6.80;100.00
51359;BME280;37448;51.588;7.248;2022-10-19T01:44:07;102120.75;;;6.74;100.00
51359;BME280;37448;51.588;7.248;2022-10-19T01:46:44;102110.72;;;6.70;100.00
51359;BME280;37448;51.588;7.248;2022-10-19T01:49:21;102107.28;;;6.64;100.00
51359;BME280;37448;51.588;7.248;2022-10-19T01:51:58;102108.28;;;6.68;100.00
51359;BME280;37448;51.588;7.248;2022-10-19T01:54:35;102108.91;;;6.65;100.00
51359;BME280;37448;51.588;7.248;2022-10-19T01:57:10;102097.97;;;6.65;100.00
51359;BME280;37448;51.588;7.248;2022-10-19T01:59:42;102101.81;;;6.64;100.00
51359;BME280;37448;51.588;7.248;2022-10-19T02:02:16;102097.53;;;6.58;100.00
51359;BME280;37448;51.588;7.248;2022-10-19T02:04:48;102100.59;;;6.57;100.00
51359;BME280;37448;51.588;7.248;2022-10-19T02:07:20;102101.69;;;6.56;100.00
51359;BME280;37448;51.588;7.248;2022-10-19T02:09:51;102098.66;;;6.43;100.00
51359;BME280;37448;51.588;7.248;2022-10-19T02:12:22;102097.31;;;6.41;100.00
51359;BME280;37448;51.588;7.248;2022-10-19T02:14:56;102095.31;;;6.47;100.00
51359;BME280;37448;51.588;7.248;2022-10-19T02:17:28;102096.53;;;6.40;100.00
51359;BME280;37448;51.588;7.248;2022-10-19T02:20:00;102096.75;;;6.44;100.00
51359;BME280;37448;51.588;7.248;2022-10-19T02:22:31;102090.84;;;6.37;100.00
51359;BME280;37448;51.588;7.248;2022-10-19T02:25:01;102106.44;;;6.36;100.00
51359;BME280;37448;51.588;7.248;2022-10-19T02:27:32;102098.63;;;6.30;100.00
51359;BME280;37448;51.588;7.248;2022-10-19T02:30:03;102096.91;;;6.34;100.00
51359;BME280;37448;51.588;7.248;2022-10-19T02:32:34;102090.06;;;6.36;100.00
51359;BME280;37448;51.588;7.248;2022-10-19T02:35:05;102090.84;;;6.37;100.00
51359;BME280;37448;51.588;7.248;2022-10-19T02:37:36;102100.38;;;6.39;100.00
51359;BME280;37448;51.588;7.248;2022-10-19T02:40:08;102095.19;;;6.38;100.00
51359;BME280;37448;51.588;7.248;2022-10-19T02:42:43;102100.66;;;6.38;100.00
51359;BME280;37448;51.588;7.248;2022-10-19T02:45:28;102095.53;;;6.36;100.00
51359;BME280;37448;51.588;7.248;2022-10-19T02:48:03;102098.84;;;6.33;100.00
51359;BME280;37448;51.588;7.248;2022-10-19T02:50:34;102090.44;;;6.30;100.00
51359;BME280;37448;51.588;7.248;2022-10-19T02:53:05;102097.81;;;6.29;100.00
51359;BME280;37448;51.588;7.248;2022-10-19T02:55:35;102097.91;;;6.24;100.00
51359;BME280;37448;51.588;7.248;2022-10-19T02:58:05;102096.31;;;6.23;100.00
51359;BME280;37448;51.588;7.248;2022-10-19T03:00:36;102097.09;;;6.24;100.00
51359;BME280;37448;51.588;7.248;2022-10-19T03:03:06;102094.34;;;6.24;100.00
51359;BME280;37448;51.588;7.248;2022-10-19T03:05:36;102092.66;;;6.28;100.00
51359;BME280;37448;51.588;7.248;2022-10-19T03:08:07;102096.72;;;6.30;100.00
51359;BME280;37448;51.588;7.248;2022-10-19T03:10:37;102095.09;;;6.29;100.00
51359;BME280;37448;51.588;7.248;2022-10-19T03:13:07;102100.88;;;6.28;100.00
51359;BME280;37448;51.588;7.248;2022-10-19T03:15:38;102104.63;;;6.32;100.00
51359;BME280;37448;51.588;7.248;2022-10-19T03:18:08;102099.94;;;6.32;100.00
51359;BME280;37448;51.588;7.248;2022-10-19T03:20:38;102102.38;;;6.34;100.00
51359;BME280;37448;51.588;7.248;2022-10-19T03:23:09;102102.38;;;6.34;100.00
51359;BME280;37448;51.588;7.248;2022-10-19T03:25:39;102110.56;;;6.34;100.00
51359;BME280;37448;51.588;7.248;2022-10-19T03:28:10;102106.66;;;6.40;100.00
51359;BME280;37448;51.588;7.248;2022-10-19T03:30:40;102106.53;;;6.45;100.00
51359;BME280;37448;51.588;7.248;2022-10-19T03:33:10;102117.97;;;6.47;100.00
51359;BME280;37448;51.588;7.248;2022-10-19T03:35:40;102114.16;;;6.48;100.00
51359;BME280;37448;51.588;7.248;2022-10-19T03:38:11;102131.53;;;6.52;100.00
51359;BME280;37448;51.588;7.248;2022-10-19T03:40:41;102134.78;;;6.54;100.00
51359;BME280;37448;51.588;7.248;2022-10-19T03:43:12;102141.66;;;6.52;100.00
51359;BME280;37448;51.588;7.248;2022-10-19T03:45:45;102131.53;;;6.52;100.00
51359;BME280;37448;51.588;7.248;2022-10-19T03:48:16;102130.44;;;6.53;100.00
51359;BME280;37448;51.588;7.248;2022-10-19T03:50:46;102130.53;;;6.48;100.00
51359;BME280;37448;51.588;7.248;2022-10-19T03:53:17;102136.28;;;6.47;100.00
51359;BME280;37448;51.588;7.248;2022-10-19T03:55:47;102128.50;;;6.40;100.00
51359;BME280;37448;51.588;7.248;2022-10-19T03:58:17;102126.88;;;6.39;100.00
51359;BME280;37448;51.588;7.248;2022-10-19T04:00:48;102122.03;;;6.36;100.00
51359;BME280;37448;51.588;7.248;2022-10-19T04:03:18;102123.19;;;6.30;100.00
51359;BME280;37448;51.588;7.248;2022-10-19T04:05:48;102129.28;;;6.27;100.00
51359;BME280;37448;51.588;7.248;2022-10-19T04:08:19;102123.88;;;6.22;100.00
51359;BME280;37448;51.588;7.248;2022-10-19T04:10:49;102123.16;;;6.16;100.00
51359;BME280;37448;51.588;7.248;2022-10-19T04:13:19;102113.66;;;6.14;100.00
51359;BME280;37448;51.588;7.248;2022-10-19T04:15:50;102120.75;;;6.15;100.00
51359;BME280;37448;51.588;7.248;2022-10-19T04:18:20;102104.53;;;6.05;100.00
51359;BME280;37448;51.588;7.248;2022-10-19T04:20:59;102108.56;;;6.07;100.00
51359;BME280;37448;51.588;7.248;2022-10-19T04:23:34;102100.50;;;6.02;100.00
51359;BME280;37448;51.588;7.248;2022-10-19T04:26:06;102102.47;;;5.96;100.00
51359;BME280;37448;51.588;7.248;2022-10-19T04:28:36;102096.00;;;5.92;100.00
51359;BME280;37448;51.588;7.248;2022-10-19T04:31:07;102099.63;;;5.88;100.00
51359;BME280;37448;51.588;7.248;2022-10-19T04:33:38;102090.09;;;5.85;100.00
51359;BME280;37448;51.588;7.248;2022-10-19T04:36:10;102102.69;;;5.81;100.00
51359;BME280;37448;51.588;7.248;2022-10-19T04:38:40;102103.22;;;5.83;100.00
51359;BME280;37448;51.588;7.248;2022-10-19T04:41:14;102095.63;;;5.80;100.00
51359;BME280;37448;51.588;7.248;2022-10-19T04:43:45;102106.81;;;5.79;100.00
51359;BME280;37448;51.588;7.248;2022-10-19T04:46:18;102100.47;;;5.83;100.00
51359;BME280;37448;51.588;7.248;2022-10-19T04:48:48;102102.69;;;5.81;100.00
51359;BME280;37448;51.588;7.248;2022-10-19T04:51:19;102105.41;;;5.81;100.00
51359;BME280;37448;51.588;7.248;2022-10-19T04:53:50;102101.59;;;5.82;100.00
51359;BME280;37448;51.588;7.248;2022-10-19T04:56:23;102098.34;;;5.80;100.00
51359;BME280;37448;51.588;7.248;2022-10-19T04:58:56;102102.78;;;5.76;100.00
51359;BME280;37448;51.588;7.248;2022-10-19T05:01:28;102101.38;;;5.79;100.00
51359;BME280;37448;51.588;7.248;2022-10-19T05:04:00;102100.56;;;5.78;100.00
51359;BME280;37448;51.588;7.248;2022-10-19T05:06:32;102102.41;;;5.83;100.00
51359;BME280;37448;51.588;7.248;2022-10-19T05:09:02;102099.38;;;5.84;100.00
51359;BME280;37448;51.588;7.248;2022-10-19T05:11:33;102103.16;;;5.88;100.00
51359;BME280;37448;51.588;7.248;2022-10-19T05:14:03;102107.53;;;5.89;100.00
51359;BME280;37448;51.588;7.248;2022-10-19T05:16:33;102105.28;;;5.91;100.00
51359;BME280;37448;51.588;7.248;2022-10-19T05:19:04;102097.09;;;5.91;100.00
51359;BME280;37448;51.588;7.248;2022-10-19T05:21:34;102094.38;;;5.91;100.00
51359;BME280;37448;51.588;7.248;2022-10-19T05:24:04;102093.13;;;5.84;100.00
51359;BME280;37448;51.588;7.248;2022-10-19T05:26:35;102091.47;;;5.83;100.00
51359;BME280;37448;51.588;7.248;2022-10-19T05:29:05;102099.94;;;5.81;100.00
51359;BME280;37448;51.588;7.248;2022-10-19T05:31:35;102097.91;;;5.73;100.00
51359;BME280;37448;51.588;7.248;2022-10-19T05:34:06;102098.44;;;5.75;100.00
51359;BME280;37448;51.588;7.248;2022-10-19T05:36:38;102108.97;;;5.82;100.00
51359;BME280;37448;51.588;7.248;2022-10-19T05:39:13;102099.16;;;5.81;100.00
51359;BME280;37448;51.588;7.248;2022-10-19T05:41:45;102101.00;;;5.85;100.00
51359;BME280;37448;51.588;7.248;2022-10-19T05:44:20;102097.09;;;5.91;100.00
51359;BME280;37448;51.588;7.248;2022-10-19T05:46:51;102103.59;;;5.95;100.00
51359;BME280;37448;51.588;7.248;2022-10-19T05:49:21;102102.47;;;5.96;100.00
51359;BME280;37448;51.588;7.248;2022-10-19T05:51:52;102096.22;;;5.96;100.00
51359;BME280;37448;51.588;7.248;2022-10-19T05:54:22;102094.00;;;5.98;100.00
51359;BME280;37448;51.588;7.248;2022-10-19T05:56:52;102094.06;;;5.74;100.00
51359;BME280;37448;51.588;7.248;2022-10-19T05:59:23;102097.53;;;5.80;100.00
51359;BME280;37448;51.588;7.248;2022-10-19T06:01:53;102105.41;;;5.81;100.00
51359;BME280;37448;51.588;7.248;2022-10-19T06:04:24;102112.47;;;5.87;100.00
51359;BME280;37448;51.588;7.248;2022-10-19T06:06:54;102124.91;;;5.93;100.00
51359;BME280;37448;51.588;7.248;2022-10-19T06:09:24;102120.28;;;5.94;100.00
51359;BME280;37448;51.588;7.248;2022-10-19T06:11:55;102134.28;;;5.87;100.00
51359;BME280;37448;51.588;7.248;2022-10-19T06:14:25;102135.91;;;5.88;100.00
51359;BME280;37448;51.588;7.248;2022-10-19T06:16:56;102134.41;;;5.77;100.00
51359;BME280;37448;51.588;7.248;2022-10-19T06:19:26;102133.00;;;5.80;100.00
51359;BME280;37448;51.588;7.248;2022-10-19T06:21:57;102141.41;;;5.83;100.00
51359;BME280;37448;51.588;7.248;2022-10-19T06:24:27;102129.03;;;5.72;100.00
51359;BME280;37448;51.588;7.248;2022-10-19T06:26:57;102128.31;;;5.85;100.00
51359;BME280;37448;51.588;7.248;2022-10-19T06:29:28;102138.16;;;5.81;100.00
51359;BME280;37448;51.588;7.248;2022-10-19T06:31:58;102135.94;;;5.83;100.00
51359;BME280;37448;51.588;7.248;2022-10-19T06:34:29;102135.31;;;5.91;100.00
51359;BME280;37448;51.588;7.248;2022-10-19T06:36:59;102135.84;;;5.93;100.00
51359;BME280;37448;51.588;7.248;2022-10-19T06:39:30;102144.53;;;5.95;100.00
51359;BME280;37448;51.588;7.248;2022-10-19T06:42:00;102138.03;;;5.91;100.00
51359;BME280;37448;51.588;7.248;2022-10-19T06:44:30;102144.53;;;5.95;100.00
51359;BME280;37448;51.588;7.248;2022-10-19T06:47:01;102144.88;;;6.08;100.00
51359;BME280;37448;51.588;7.248;2022-10-19T06:49:31;102137.88;;;6.02;100.00
51359;BME280;37448;51.588;7.248;2022-10-19T06:52:04;102143.16;;;6.12;100.00
51359;BME280;37448;51.588;7.248;2022-10-19T06:54:36;102134.41;;;6.15;100.00
51359;BME280;37448;51.588;7.248;2022-10-19T06:57:07;102135.72;;;6.17;100.00
51359;BME280;37448;51.588;7.248;2022-10-19T06:59:37;102134.81;;;6.22;100.00
51359;BME280;37448;51.588;7.248;2022-10-19T07:02:10;102134.72;;;6.27;100.00
51359;BME280;37448;51.588;7.248;2022-10-19T07:04:40;102129.06;;;6.23;100.00
51359;BME280;37448;51.588;7.248;2022-10-19T07:07:11;102129.06;;;6.37;100.00
51359;BME280;37448;51.588;7.248;2022-10-19T07:09:41;102134.38;;;6.47;100.00
51359;BME280;37448;51.588;7.248;2022-10-19T07:12:11;102126.78;;;6.44;100.00
51359;BME280;37448;51.588;7.248;2022-10-19T07:14:42;102132.81;;;6.41;100.00
51359;BME280;37448;51.588;7.248;2022-10-19T07:17:12;102120.41;;;6.49;100.00
51359;BME280;37448;51.588;7.248;2022-10-19T07:19:43;102126.69;;;6.63;100.00
51359;BME280;37448;51.588;7.248;2022-10-19T07:22:13;102126.09;;;6.66;100.00
51359;BME280;37448;51.588;7.248;2022-10-19T07:24:44;102120.41;;;6.62;100.00
51359;BME280;37448;51.588;7.248;2022-10-19T07:27:14;102127.22;;;6.78;100.00
51359;BME280;37448;51.588;7.248;2022-10-19T07:29:45;102125.72;;;6.86;100.00
51359;BME280;37448;51.588;7.248;2022-10-19T07:32:15;102127.09;;;6.83;100.00
51359;BME280;37448;51.588;7.248;2022-10-19T07:34:45;102135.22;;;7.16;100.00
51359;BME280;37448;51.588;7.248;2022-10-19T07:37:16;102135.16;;;7.43;100.00
51359;BME280;37448;51.588;7.248;2022-10-19T07:39:46;102129.56;;;7.48;100.00
51359;BME280;37448;51.588;7.248;2022-10-19T07:42:17;102121.72;;;7.69;100.00
51359;BME280;37448;51.588;7.248;2022-10-19T07:44:47;102116.44;;;7.95;100.00
51359;BME280;37448;51.588;7.248;2022-10-19T07:47:17;102118.31;;;7.86;100.00
51359;BME280;37448;51.588;7.248;2022-10-19T07:49:48;102119.06;;;8.00;100.00
51359;BME280;37448;51.588;7.248;2022-10-19T07:52:19;102114.75;;;8.07;100.00
51359;BME280;37448;51.588;7.248;2022-10-19T07:54:49;102115.44;;;8.13;100.00
51359;BME280;37448;51.588;7.248;2022-10-19T07:57:20;102134.63;;;8.35;100.00
51359;BME280;37448;51.588;7.248;2022-10-19T07:59:51;102146.84;;;8.29;100.00
51359;BME280;37448;51.588;7.248;2022-10-19T08:02:21;102136.09;;;8.19;100.00
51359;BME280;37448;51.588;7.248;2022-10-19T08:04:52;102134.13;;;8.33;100.00
51359;BME280;37448;51.588;7.248;2022-10-19T08:07:22;102150.53;;;8.55;100.00
51359;BME280;37448;51.588;7.248;2022-10-19T08:09:52;102139.47;;;8.38;100.00
51359;BME280;37448;51.588;7.248;2022-10-19T08:12:23;102147.28;;;8.53;100.00
51359;BME280;37448;51.588;7.248;2022-10-19T08:14:53;102151.53;;;8.59;100.00
51359;BME280;37448;51.588;7.248;2022-10-19T08:17:24;102159.53;;;8.47;100.00
51359;BME280;37448;51.588;7.248;2022-10-19T08:19:54;102156.19;;;8.59;100.00
51359;BME280;37448;51.588;7.248;2022-10-19T08:22:24;102159.41;;;8.52;100.00
51359;BME280;37448;51.588;7.248;2022-10-19T08:24:55;102152.25;;;8.74;100.00
51359;BME280;37448;51.588;7.248;2022-10-19T08:27:25;102154.03;;;8.78;100.00
51359;BME280;37448;51.588;7.248;2022-10-19T08:29:55;102157.09;;;8.77;100.00
51359;BME280;37448;51.588;7.248;2022-10-19T08:32:26;102148.91;;;8.85;100.00
51359;BME280;37448;51.588;7.248;2022-10-19T08:34:56;102145.88;;;9.04;100.00
51359;BME280;37448;51.588;7.248;2022-10-19T08:37:27;102150.97;;;9.28;100.00
51359;BME280;37448;51.588;7.248;2022-10-19T08:39:57;102143.44;;;10.02;100.00
51359;BME280;37448;51.588;7.248;2022-10-19T08:42:36;102125.34;;;10.82;100.00
51359;BME280;37448;51.588;7.248;2022-10-19T08:45:20;102106.13;;;11.53;100.00
51359;BME280;37448;51.588;7.248;2022-10-19T08:48:12;102091.47;;;12.59;100.00
51359;BME280;37448;51.588;7.248;2022-10-19T08:50:47;102083.47;;;14.38;100.00
51359;BME280;37448;51.588;7.248;2022-10-19T08:56:13;102085.88;;;14.40;100.00
51359;BME280;37448;51.588;7.248;2022-10-19T08:59:22;102097.13;;;14.47;100.00
51359;BME280;37448;51.588;7.248;2022-10-19T09:01:59;102088.16;;;15.00;100.00
51359;BME280;37448;51.588;7.248;2022-10-19T09:04:39;102090.28;;;15.42;100.00
51359;BME280;37448;51.588;7.248;2022-10-19T09:12:59;102076.13;;;15.28;100.00
51359;BME280;37448;51.588;7.248;2022-10-19T09:15:39;102067.50;;;15.48;100.00
51359;BME280;37448;51.588;7.248;2022-10-19T09:18:13;102077.81;;;16.51;100.00
51359;BME280;37448;51.588;7.248;2022-10-19T09:20:50;102069.66;;;16.39;100.00
51359;BME280;37448;51.588;7.248;2022-10-19T09:23:28;102056.28;;;15.61;100.00
51359;BME280;37448;51.588;7.248;2022-10-19T09:25:59;102064.31;;;16.72;100.00
51359;BME280;37448;51.588;7.248;2022-10-19T09:28:49;102057.69;;;17.33;100.00
51359;BME280;37448;51.588;7.248;2022-10-19T09:31:35;102049.91;;;17.46;100.00
51359;BME280;37448;51.588;7.248;2022-10-19T09:34:13;102051.28;;;17.92;100.00
51359;BME280;37448;51.588;7.248;2022-10-19T09:36:50;102040.19;;;17.96;100.00
51359;BME280;37448;51.588;7.248;2022-10-19T09:39:23;102035.06;;;17.61;100.00
51359;BME280;37448;51.588;7.248;2022-10-19T09:41:57;102039.44;;;17.99;100.00
51359;BME280;37448;51.588;7.248;2022-10-19T09:44:29;102032.75;;;17.40;100.00
51359;BME280;37448;51.588;7.248;2022-10-19T09:49:47;102024.28;;;17.29;100.00
51359;BME280;37448;51.588;7.248;2022-10-19T09:52:37;102025.25;;;17.14;100.00
51359;BME280;37448;51.588;7.248;2022-10-19T09:55:25;102013.97;;;17.30;100.00
51359;BME280;37448;51.588;7.248;2022-10-19T09:58:19;102021.75;;;17.80;100.00
51359;BME280;37448;51.588;7.248;2022-10-19T10:00:51;102007.56;;;17.26;100.00
51359;BME280;37448;51.588;7.248;2022-10-19T10:06:04;102013.13;;;17.26;100.00
51359;BME280;37448;51.588;7.248;2022-10-19T10:08:38;102001.47;;;16.61;100.00
51359;BME280;37448;51.588;7.248;2022-10-19T10:11:14;101997.75;;;17.65;100.00
51359;BME280;37448;51.588;7.248;2022-10-19T10:13:49;101997.72;;;17.02;100.00
51359;BME280;37448;51.588;7.248;2022-10-19T10:16:23;101984.72;;;15.47;100.00
51359;BME280;37448;51.588;7.248;2022-10-19T10:18:59;101993.44;;;14.91;100.00
51359;BME280;37448;51.588;7.248;2022-10-19T10:26:46;101980.13;;;13.99;100.00
51359;BME280;37448;51.588;7.248;2022-10-19T10:32:07;101981.22;;;13.39;100.00
51359;BME280;37448;51.588;7.248;2022-10-19T10:34:48;101985.00;;;13.07;100.00
51359;BME280;37448;51.588;7.248;2022-10-19T10:37:39;101982.81;;;13.00;100.00
51359;BME280;37448;51.588;7.248;2022-10-19T10:40:27;101979.25;;;13.00;100.00
51359;BME280;37448;51.588;7.248;2022-10-19T10:43:07;101967.66;;;12.82;100.00
51359;BME280;37448;51.588;7.248;2022-10-19T10:45:40;101962.16;;;12.70;100.00
51359;BME280;37448;51.588;7.248;2022-10-19T10:48:28;101969.53;;;12.66;100.00
51359;BME280;37448;51.588;7.248;2022-10-19T10:51:00;101970.22;;;12.63;100.00
51359;BME280;37448;51.588;7.248;2022-10-19T10:53:39;101964.38;;;12.52;100.00
51359;BME280;37448;51.588;7.248;2022-10-19T10:56:38;101961.75;;;12.56;100.00
51359;BME280;37448;51.588;7.248;2022-10-19T10:59:14;101960.03;;;12.51;100.00
51359;BME280;37448;51.588;7.248;2022-10-19T11:02:01;101954.38;;;12.35;100.00
51359;BME280;37448;51.588;7.248;2022-10-19T11:04:37;101951.16;;;12.46;100.00
51359;BME280;37448;51.588;7.248;2022-10-19T11:07:17;101958.75;;;12.49;100.00
51359;BME280;37448;51.588;7.248;2022-10-19T11:09:56;101946.56;;;12.50;100.00
51359;BME280;37448;51.588;7.248;2022-10-19T11:12:34;101934.84;;;12.53;100.00
51359;BME280;37448;51.588;7.248;2022-10-19T11:15:16;101934.84;;;12.53;100.00
51359;BME280;37448;51.588;7.248;2022-10-19T11:17:57;101918.88;;;12.46;100.00
51359;BME280;37448;51.588;7.248;2022-10-19T11:20:30;101921.41;;;12.51;100.00
51359;BME280;37448;51.588;7.248;2022-10-19T11:23:33;101919.81;;;12.50;100.00
51359;BME280;37448;51.588;7.248;2022-10-19T11:31:48;101917.25;;;12.57;100.00
51359;BME280;37448;51.588;7.248;2022-10-19T11:37:04;101910.00;;;12.65;100.00
51359;BME280;37448;51.588;7.248;2022-10-19T11:39:55;101914.38;;;12.66;100.00
51359;BME280;37448;51.588;7.248;2022-10-19T11:42:48;101904.13;;;12.66;100.00
51359;BME280;37448;51.588;7.248;2022-10-19T11:45:40;101898.06;;;12.73;100.00
51359;BME280;37448;51.588;7.248;2022-10-19T11:51:08;101895.72;;;12.75;100.00
51359;BME280;37448;51.588;7.248;2022-10-19T11:53:45;101888.16;;;12.72;100.00
51359;BME280;37448;51.588;7.248;2022-10-19T11:56:26;101882.19;;;12.70;100.00
51359;BME280;37448;51.588;7.248;2022-10-19T12:05:20;101859.63;;;12.80;100.00
51359;BME280;37448;51.588;7.248;2022-10-19T12:13:20;101842.03;;;12.85;100.00
51359;BME280;37448;51.588;7.248;2022-10-19T12:15:53;101836.13;;;12.86;100.00
51359;BME280;37448;51.588;7.248;2022-10-19T12:18:44;101839.59;;;12.83;100.00
51359;BME280;37448;51.588;7.248;2022-10-19T12:21:24;101834.00;;;12.79;100.00
51359;BME280;37448;51.588;7.248;2022-10-19T12:24:00;101834.56;;;12.85;100.00
51359;BME280;37448;51.588;7.248;2022-10-19T12:26:34;101826.72;;;12.87;100.00
51359;BME280;37448;51.588;7.248;2022-10-19T12:29:15;101830.94;;;12.97;100.00
51359;BME280;37448;51.588;7.248;2022-10-19T12:31:47;101815.28;;;13.01;100.00
51359;BME280;37448;51.588;7.248;2022-10-19T12:37:40;101811.66;;;13.12;100.00
51359;BME280;37448;51.588;7.248;2022-10-19T12:40:31;101810.94;;;13.15;100.00
51359;BME280;37448;51.588;7.248;2022-10-19T12:46:13;101799.88;;;13.27;100.00
51359;BME280;37448;51.588;7.248;2022-10-19T12:51:57;101794.59;;;13.22;100.00
51359;BME280;37448;51.588;7.248;2022-10-19T12:54:30;101788.34;;;13.25;100.00
51359;BME280;37448;51.588;7.248;2022-10-19T12:57:03;101793.16;;;13.28;100.00
51359;BME280;37448;51.588;7.248;2022-10-19T13:00:01;101788.00;;;13.27;100.00
51359;BME280;37448;51.588;7.248;2022-10-19T13:02:34;101784.44;;;13.26;100.00
51359;BME280;37448;51.588;7.248;2022-10-19T13:05:06;101776.06;;;13.39;100.00
51359;BME280;37448;51.588;7.248;2022-10-19T13:07:36;101774.94;;;13.40;100.00
51359;BME280;37448;51.588;7.248;2022-10-19T13:10:18;101777.69;;;13.40;100.00
51359;BME280;37448;51.588;7.248;2022-10-19T13:12:49;101777.22;;;13.38;100.00
51359;BME280;37448;51.588;7.248;2022-10-19T13:18:13;101752.84;;;13.40;100.00
51359;BME280;37448;51.588;7.248;2022-10-19T13:20:49;101742.84;;;13.35;100.00
51359;BME280;37448;51.588;7.248;2022-10-19T13:26:28;101731.91;;;13.39;100.00
51359;BME280;37448;51.588;7.248;2022-10-19T13:29:00;101723.88;;;13.34;100.00
51359;BME280;37448;51.588;7.248;2022-10-19T13:31:30;101716.06;;;13.36;100.00
51359;BME280;37448;51.588;7.248;2022-10-19T13:34:08;101724.25;;;13.83;100.00
51359;BME280;37448;51.588;7.248;2022-10-19T13:36:58;101721.88;;;14.00;100.00
51359;BME280;37448;51.588;7.248;2022-10-19T13:39:29;101711.50;;;14.51;100.00
51359;BME280;37448;51.588;7.248;2022-10-19T13:41:59;101710.34;;;14.52;100.00
51359;BME280;37448;51.588;7.248;2022-10-19T13:44:32;101726.03;;;14.87;100.00
51359;BME280;37448;51.588;7.248;2022-10-19T13:53:17;101712.75;;;15.19;100.00
51359;BME280;37448;51.588;7.248;2022-10-19T14:01:20;101709.09;;;15.86;100.00
51359;BME280;37448;51.588;7.248;2022-10-19T14:04:47;101701.38;;;15.73;100.00
51359;BME280;37448;51.588;7.248;2022-10-19T14:07:47;101701.53;;;15.57;100.00
51359;BME280;37448;51.588;7.248;2022-10-19T14:10:21;101691.13;;;15.50;100.00
51359;BME280;37448;51.588;7.248;2022-10-19T14:12:52;101692.38;;;15.53;100.00
51359;BME280;37448;51.588;7.248;2022-10-19T14:15:25;101694.59;;;15.21;100.00
51359;BME280;37448;51.588;7.248;2022-10-19T14:17:57;101691.03;;;15.21;100.00
51359;BME280;37448;51.588;7.248;2022-10-19T14:20:36;101694.53;;;15.18;100.00
51359;BME280;37448;51.588;7.248;2022-10-19T14:23:24;101685.22;;;14.61;100.00
51359;BME280;37448;51.588;7.248;2022-10-19T14:26:04;101695.53;;;14.64;100.00
51359;BME280;37448;51.588;7.248;2022-10-19T14:28:37;101687.19;;;14.22;100.00
51359;BME280;37448;51.588;7.248;2022-10-19T14:31:16;101689.75;;;14.11;100.00
51359;BME280;37448;51.588;7.248;2022-10-19T14:33:52;101683.94;;;14.16;100.00
51359;BME280;37448;51.588;7.248;2022-10-19T14:36:29;101682.97;;;13.90;100.00
51359;BME280;37448;51.588;7.248;2022-10-19T14:39:02;101679.94;;;13.79;100.00
51359;BME280;37448;51.588;7.248;2022-10-19T14:41:35;101668.53;;;13.61;100.00
51359;BME280;37448;51.588;7.248;2022-10-19T14:44:20;101666.38;;;13.55;100.00